Time;durP1;ratioP1;P1;durP2;ratioP2;P2;SDS_P1;SDS_P2;PMS_P1;PMS_P2;Temp;Humidity;BMP_temperature;BMP_pressure;BME280_temperature;BME280_humidity;BME280_pressure;Samples;Min_cycle;Max_cycle;Signal;HPM_P1;HPM_P2
2023/09/10 00:01:15;;;;;;;16.23;14.55;;;21.70;56.60;;;;;;4985443;28;117086;-78
2023/09/10 00:03:43;;;;;;;16.48;13.88;;;21.80;57.00;;;;;;4985629;28;114641;-78
2023/09/10 00:06:10;;;;;;;16.30;14.57;;;21.70;56.80;;;;;;4985824;28;114413;-79
2023/09/10 00:08:37;;;;;;;15.27;13.68;;;21.70;57.00;;;;;;4986023;28;114129;-78
2023/09/10 00:11:05;;;;;;;15.35;13.68;;;21.70;57.00;;;;;;4985209;28;114928;-78
2023/09/10 00:13:32;;;;;;;16.95;13.55;;;21.60;56.90;;;;;;4984408;28;114567;-78
2023/09/10 00:16:00;;;;;;;16.60;14.80;;;21.60;57.00;;;;;;4985552;28;114207;-79
2023/09/10 00:18:27;;;;;;;16.30;13.63;;;21.60;57.10;;;;;;4985755;28;114206;-79
2023/09/10 00:20:54;;;;;;;15.00;13.48;;;21.60;57.10;;;;;;4984056;28;114860;-79
2023/09/10 00:23:21;;;;;;;17.30;15.38;;;21.50;57.10;;;;;;4984507;28;115375;-79
2023/09/10 00:25:48;;;;;;;15.57;13.95;;;21.50;57.40;;;;;;4985694;28;114340;-79
2023/09/10 00:28:15;;;;;;;18.27;14.82;;;21.50;57.10;;;;;;4983542;28;114101;-79
2023/09/10 00:30:42;;;;;;;15.73;14.05;;;21.50;57.40;;;;;;4983259;28;115460;-79
2023/09/10 00:33:09;;;;;;;16.55;14.73;;;21.50;57.40;;;;;;4985027;28;114635;-79
2023/09/10 00:35:37;;;;;;;15.48;13.73;;;21.50;57.50;;;;;;4984562;28;114374;-79
2023/09/10 00:38:04;;;;;;;15.88;14.15;;;21.50;57.30;;;;;;4985803;28;114291;-79
2023/09/10 00:40:31;;;;;;;16.85;13.98;;;21.50;57.30;;;;;;4983789;28;114931;-79
2023/09/10 00:42:58;;;;;;;18.17;15.20;;;21.50;57.30;;;;;;4984863;28;114636;-79
2023/09/10 00:45:25;;;;;;;15.90;14.30;;;21.50;57.50;;;;;;4985607;28;114332;-79
2023/09/10 00:47:52;;;;;;;16.48;14.32;;;21.50;57.50;;;;;;4952017;28;114299;-79
2023/09/10 00:50:19;;;;;;;16.95;14.63;;;21.40;57.40;;;;;;4983552;28;114911;-79
2023/09/10 00:52:49;;;;;;;15.02;13.52;;;21.30;57.80;;;;;;4983631;28;114721;-79
2023/09/10 00:55:18;;;;;;;15.30;13.60;;;21.30;57.60;;;;;;4983776;28;114164;-80
2023/09/10 00:57:46;;;;;;;15.95;14.25;;;21.30;57.80;;;;;;4984206;28;114375;-79
2023/09/10 01:00:13;;;;;;;14.43;12.93;;;21.20;57.80;;;;;;4983391;28;114858;-78
2023/09/10 01:02:43;;;;;;;17.00;13.73;;;21.30;57.70;;;;;;4983040;28;116866;-77
2023/09/10 01:05:11;;;;;;;14.77;13.25;;;21.30;57.70;;;;;;4985302;28;114214;-79
2023/09/10 01:07:38;;;;;;;16.30;14.48;;;21.30;57.60;;;;;;4984119;28;114488;-77
2023/09/10 01:10:06;;;;;;;15.85;14.07;;;21.30;57.70;;;;;;4966514;28;114959;-78
2023/09/10 01:13:00;;;;;;;15.43;13.93;;;21.30;57.60;;;;;;5000402;28;117702;-79
2023/09/10 01:15:38;;;;;;;16.75;14.98;;;21.30;57.30;;;;;;4984508;28;116740;-79
2023/09/10 01:18:09;;;;;;;16.10;14.32;;;21.20;57.70;;;;;;4967363;28;115731;-79
2023/09/10 01:20:57;;;;;;;15.98;14.15;;;21.10;58.00;;;;;;4982665;28;114990;-79
2023/09/10 01:23:39;;;;;;;17.50;14.40;;;21.20;57.90;;;;;;4983332;28;115227;-79
2023/09/10 01:26:06;;;;;;;17.48;15.30;;;21.20;57.90;;;;;;4983928;28;114308;-79
2023/09/10 01:28:33;;;;;;;15.95;14.07;;;21.30;57.90;;;;;;4985088;28;114115;-79
2023/09/10 01:31:00;;;;;;;16.58;14.88;;;21.30;57.70;;;;;;4984147;28;114877;-78
2023/09/10 01:33:28;;;;;;;16.75;15.00;;;21.30;57.70;;;;;;4984090;28;114581;-78
2023/09/10 01:36:14;;;;;;;19.75;14.40;;;21.30;57.70;;;;;;4967180;28;114129;-79
2023/09/10 01:39:01;;;;;;;15.10;13.55;;;21.30;57.30;;;;;;4967564;28;114019;-80
2023/09/10 01:41:28;;;;;;;15.80;14.13;;;21.30;57.50;;;;;;4982163;28;115517;-78
2023/09/10 01:43:55;;;;;;;14.52;13.00;;;21.30;57.50;;;;;;4982779;28;114093;-78
2023/09/10 01:46:23;;;;;;;14.70;13.30;;;21.30;57.30;;;;;;4966541;28;114479;-78
2023/09/10 01:48:54;;;;;;;15.65;14.05;;;21.30;57.30;;;;;;4984389;28;114026;-78
2023/09/10 01:51:21;;;;;;;15.20;13.25;;;21.30;57.30;;;;;;4982685;28;115388;-79
2023/09/10 01:53:48;;;;;;;14.95;12.88;;;21.30;57.30;;;;;;4983868;28;114802;-78
2023/09/10 01:56:15;;;;;;;15.88;14.27;;;21.30;57.30;;;;;;4983441;28;114522;-78
2023/09/10 01:58:42;;;;;;;13.93;12.43;;;21.30;57.30;;;;;;4983217;28;114372;-78
2023/09/10 02:01:09;;;;;;;14.75;13.02;;;21.30;57.30;;;;;;4982421;28;115210;-78
2023/09/10 02:03:36;;;;;;;14.55;12.93;;;21.30;57.30;;;;;;4966466;28;114944;-78
2023/09/10 02:06:04;;;;;;;15.88;13.02;;;21.30;57.30;;;;;;4966452;28;114310;-79
2023/09/10 02:08:31;;;;;;;14.68;13.18;;;21.30;57.30;;;;;;4984413;28;114468;-78
2023/09/10 02:10:59;;;;;;;15.63;14.02;;;21.20;57.40;;;;;;4981526;28;115242;-78
2023/09/10 02:13:26;;;;;;;15.00;13.43;;;21.20;57.60;;;;;;4981863;28;115198;-79
2023/09/10 02:15:53;;;;;;;15.23;13.77;;;21.10;57.60;;;;;;4983660;28;117399;-78
2023/09/10 02:18:22;;;;;;;14.90;13.32;;;21.10;57.60;;;;;;4982916;28;114306;-79
2023/09/10 02:20:49;;;;;;;13.20;11.88;;;21.10;57.70;;;;;;4982198;28;114869;-79
2023/09/10 02:23:16;;;;;;;14.30;12.80;;;20.90;58.00;;;;;;4965807;28;115281;-78
2023/09/10 02:25:43;;;;;;;14.52;12.93;;;20.90;58.10;;;;;;4982675;28;114385;-78
2023/09/10 02:28:10;;;;;;;13.43;12.00;;;20.90;58.10;;;;;;4984362;28;114351;-79
2023/09/10 02:30:37;;;;;;;14.90;12.75;;;21.00;58.00;;;;;;4983197;28;114967;-78
2023/09/10 02:33:06;;;;;;;14.77;13.15;;;21.00;57.90;;;;;;4982840;28;116657;-78
2023/09/10 02:35:33;;;;;;;13.85;12.40;;;21.20;57.60;;;;;;4982289;28;114195;-78
2023/09/10 02:38:02;;;;;;;13.85;12.30;;;21.00;57.60;;;;;;4983722;28;114331;-78
2023/09/10 02:40:29;;;;;;;13.50;12.13;;;20.80;58.00;;;;;;4981878;28;115187;-79
2023/09/10 02:42:56;;;;;;;15.15;12.02;;;20.80;58.30;;;;;;4982728;28;115830;-79
2023/09/10 02:45:23;;;;;;;13.15;11.75;;;20.80;58.30;;;;;;4983801;28;114370;-79
2023/09/10 02:47:50;;;;;;;13.32;11.93;;;20.90;58.10;;;;;;4982362;28;114051;-78
2023/09/10 02:50:18;;;;;;;13.35;11.95;;;20.90;58.00;;;;;;4982955;28;114922;-78
2023/09/10 02:52:45;;;;;;;13.95;12.18;;;21.10;57.90;;;;;;4982335;28;114636;-78
2023/09/10 02:55:12;;;;;;;13.43;11.63;;;21.10;57.70;;;;;;4983598;28;114448;-78
2023/09/10 02:57:39;;;;;;;13.73;12.32;;;21.20;57.60;;;;;;4983550;28;114470;-79
2023/09/10 03:00:07;;;;;;;13.60;12.15;;;21.10;57.50;;;;;;4981260;28;115928;-78
2023/09/10 03:02:34;;;;;;;13.43;11.52;;;21.10;57.50;;;;;;4981681;28;114928;-79
2023/09/10 03:05:02;;;;;;;13.35;11.55;;;21.10;57.70;;;;;;4983560;28;114519;-78
2023/09/10 03:07:31;;;;;;;16.98;13.93;;;21.10;57.60;;;;;;4982261;28;114573;-78
2023/09/10 03:09:58;;;;;;;13.80;12.25;;;21.10;57.40;;;;;;4981570;28;114298;-79
2023/09/10 03:12:27;;;;;;;15.00;13.15;;;21.10;57.50;;;;;;4981647;28;114607;-78
2023/09/10 03:14:55;;;;;;;13.73;12.27;;;21.00;57.30;;;;;;4965844;28;114420;-80
2023/09/10 03:17:24;;;;;;;13.23;11.88;;;20.90;57.60;;;;;;4982116;28;114332;-78
2023/09/10 03:19:52;;;;;;;12.98;11.68;;;20.90;57.70;;;;;;4965243;28;115070;-78
2023/09/10 03:22:19;;;;;;;14.15;12.68;;;20.90;57.90;;;;;;4965239;28;114694;-77
2023/09/10 03:24:46;;;;;;;12.93;11.60;;;20.90;57.90;;;;;;4949100;28;114357;-78
2023/09/10 03:27:13;;;;;;;13.05;11.68;;;20.90;57.90;;;;;;4982197;28;114484;-77
2023/09/10 03:29:42;;;;;;;13.75;11.38;;;20.90;58.10;;;;;;4965013;28;114809;-78
2023/09/10 03:32:09;;;;;;;14.23;12.13;;;20.90;58.10;;;;;;4981080;28;114744;-77
2023/09/10 03:34:38;;;;;;;12.57;11.27;;;21.00;57.90;;;;;;4965238;28;114127;-78
2023/09/10 03:37:06;;;;;;;13.13;11.80;;;21.00;57.80;;;;;;4981868;28;114161;-79
2023/09/10 03:39:34;;;;;;;13.15;11.75;;;21.00;57.70;;;;;;4981259;28;114859;-78
2023/09/10 03:42:02;;;;;;;13.70;12.20;;;21.10;57.50;;;;;;4981165;28;116639;-78
2023/09/10 03:44:30;;;;;;;13.02;11.63;;;21.10;57.40;;;;;;4965745;28;114546;-78
2023/09/10 03:46:57;;;;;;;12.80;11.50;;;21.10;57.40;;;;;;4981838;28;114345;-77
2023/09/10 03:49:24;;;;;;;13.80;11.80;;;21.20;57.40;;;;;;4981776;28;114930;-78
2023/09/10 03:51:53;;;;;;;13.85;12.13;;;21.20;57.20;;;;;;4964479;28;118345;-78
2023/09/10 03:54:20;;;;;;;14.98;12.68;;;21.20;57.10;;;;;;4981497;28;114449;-78
2023/09/10 03:56:47;;;;;;;12.35;11.10;;;21.20;57.20;;;;;;4983006;28;114263;-77
2023/09/10 03:59:14;;;;;;;14.73;12.07;;;21.20;57.20;;;;;;4964650;28;114979;-78
2023/09/10 04:01:42;;;;;;;13.00;11.70;;;21.20;57.10;;;;;;4980913;28;115315;-78
2023/09/10 04:04:09;;;;;;;14.38;12.70;;;21.20;57.10;;;;;;4985322;28;114426;-78
2023/09/10 04:06:36;;;;;;;12.75;11.10;;;21.30;57.00;;;;;;4985479;28;114377;-78
2023/09/10 04:09:03;;;;;;;12.38;11.07;;;21.30;57.00;;;;;;4985408;28;114952;-78
2023/09/10 04:11:30;;;;;;;13.38;12.00;;;21.30;57.00;;;;;;4985413;28;115038;-78
2023/09/10 04:13:58;;;;;;;12.95;11.75;;;21.30;56.80;;;;;;4984411;28;114313;-79
2023/09/10 04:16:26;;;;;;;14.10;12.32;;;21.30;56.80;;;;;;4985594;28;114205;-78
2023/09/10 04:18:53;;;;;;;13.15;11.57;;;21.30;56.70;;;;;;4985288;28;115193;-78
2023/09/10 04:21:20;;;;;;;12.63;11.32;;;21.20;56.90;;;;;;4951264;28;116682;-78
2023/09/10 04:23:47;;;;;;;12.98;11.52;;;21.30;56.90;;;;;;4984924;28;114395;-78
2023/09/10 04:26:15;;;;;;;15.68;12.52;;;21.20;56.80;;;;;;4985924;28;114124;-78
2023/09/10 04:28:43;;;;;;;14.98;12.70;;;21.30;56.70;;;;;;4985174;28;115055;-78
2023/09/10 04:31:16;;;;;;;13.70;12.30;;;21.30;56.50;;;;;;4968005;28;115222;-79
2023/09/10 04:33:44;;;;;;;13.07;11.63;;;21.30;56.60;;;;;;4968381;28;114300;-78
2023/09/10 04:36:11;;;;;;;14.40;11.88;;;21.20;56.80;;;;;;4984570;28;114318;-77
2023/09/10 04:38:38;;;;;;;12.48;11.02;;;21.20;56.80;;;;;;4966760;28;115038;-79
2023/09/10 04:41:06;;;;;;;13.68;12.27;;;21.30;56.70;;;;;;5000509;28;114677;-77
2023/09/10 04:43:33;;;;;;;12.48;11.23;;;21.30;56.60;;;;;;4984443;28;114125;-79
2023/09/10 04:46:04;;;;;;;13.57;11.27;;;21.30;56.70;;;;;;4984580;28;114376;-79
2023/09/10 04:48:32;;;;;;;12.38;11.07;;;21.40;56.50;;;;;;4983540;28;115072;-78
2023/09/10 04:50:59;;;;;;;13.38;11.82;;;21.60;56.20;;;;;;4983455;28;114694;-78
2023/09/10 04:53:26;;;;;;;12.63;11.35;;;21.60;55.80;;;;;;4967881;28;114345;-78
2023/09/10 04:55:54;;;;;;;13.73;11.52;;;21.70;55.60;;;;;;5001404;28;114155;-78
2023/09/10 04:58:23;;;;;;;12.93;11.60;;;21.80;55.40;;;;;;4951425;28;114896;-78
2023/09/10 05:00:50;;;;;;;13.20;11.80;;;21.90;55.20;;;;;;4966710;28;115675;-78
2023/09/10 05:03:20;;;;;;;15.15;12.85;;;21.90;54.90;;;;;;4967321;28;114388;-78
2023/09/10 05:05:55;;;;;;;14.20;12.25;;;22.00;54.80;;;;;;4984251;28;114182;-78
2023/09/10 05:08:22;;;;;;;15.80;12.90;;;22.10;54.80;;;;;;4967765;28;115013;-77
2023/09/10 05:10:49;;;;;;;16.58;13.30;;;22.20;54.60;;;;;;4984230;28;116520;-78
2023/09/10 05:13:16;;;;;;;14.48;12.93;;;22.20;54.30;;;;;;5000825;28;114341;-78
2023/09/10 05:15:47;;;;;;;17.25;15.30;;;22.30;54.10;;;;;;4982270;28;114376;-77
2023/09/10 05:18:15;;;;;;;17.98;16.17;;;22.30;53.90;;;;;;4983117;28;114930;-77
2023/09/10 05:20:42;;;;;;;20.10;17.95;;;22.40;53.90;;;;;;4983401;28;114661;-80
2023/09/10 05:23:09;;;;;;;21.30;16.90;;;22.40;53.70;;;;;;4967431;28;114426;-77
2023/09/10 05:25:37;;;;;;;18.65;15.23;;;22.50;53.50;;;;;;4967299;28;114369;-78
2023/09/10 05:28:06;;;;;;;16.50;14.77;;;22.60;53.40;;;;;;4982518;28;114928;-78
2023/09/10 05:30:36;;;;;;;13.25;11.82;;;22.60;53.20;;;;;;4982902;28;114599;-78
2023/09/10 05:33:03;;;;;;;15.52;12.57;;;22.70;53.10;;;;;;4983520;28;114563;-79
2023/09/10 05:35:31;;;;;;;14.88;12.10;;;22.80;52.90;;;;;;4983509;28;114462;-79
2023/09/10 05:37:58;;;;;;;13.25;11.35;;;22.80;52.70;;;;;;4984047;28;115007;-79
2023/09/10 05:40:25;;;;;;;12.20;10.90;;;22.90;52.50;;;;;;4966200;28;117858;-79
2023/09/10 05:42:52;;;;;;;13.05;10.20;;;22.90;52.30;;;;;;4982952;28;114117;-79
2023/09/10 05:45:19;;;;;;;12.90;9.95;;;23.10;52.20;;;;;;4967488;28;114233;-79
2023/09/10 05:47:47;;;;;;;13.23;9.85;;;23.20;51.90;;;;;;4982684;28;114915;-79
2023/09/10 05:50:14;;;;;;;10.65;9.43;;;23.30;51.80;;;;;;4966196;28;115130;-76
2023/09/10 05:52:41;;;;;;;12.05;9.90;;;23.30;51.40;;;;;;4966335;28;114320;-76
2023/09/10 05:55:09;;;;;;;11.63;10.18;;;23.40;51.20;;;;;;4983259;28;114280;-78
2023/09/10 05:57:36;;;;;;;12.00;9.93;;;23.50;51.20;;;;;;4982490;28;115477;-78
2023/09/10 06:00:03;;;;;;;11.43;10.20;;;23.60;50.80;;;;;;4982105;28;117395;-77
2023/09/10 06:02:43;;;;;;;11.30;10.10;;;23.70;50.90;;;;;;4982396;28;114226;-79
2023/09/10 06:05:13;;;;;;;10.80;9.02;;;23.80;50.50;;;;;;4983262;28;114420;-79
2023/09/10 06:07:41;;;;;;;12.10;10.48;;;23.80;50.10;;;;;;4998688;28;114992;-78
2023/09/10 06:10:09;;;;;;;12.40;9.40;;;23.90;50.20;;;;;;4966213;28;114938;-79
2023/09/10 06:12:37;;;;;;;12.10;10.60;;;23.90;50.10;;;;;;4983075;28;114281;-79
2023/09/10 06:15:05;;;;;;;10.68;9.63;;;24.10;49.90;;;;;;4982708;28;114565;-79
2023/09/10 06:17:33;;;;;;;10.88;9.77;;;24.20;49.70;;;;;;4965293;28;114815;-78
2023/09/10 06:20:02;;;;;;;12.00;9.38;;;24.30;49.80;;;;;;4982105;28;115427;-80
2023/09/10 06:22:29;;;;;;;11.85;9.82;;;24.30;49.40;;;;;;4950595;28;114402;-78
2023/09/10 06:24:59;;;;;;;10.52;9.45;;;24.50;49.30;;;;;;4982509;28;114385;-79
2023/09/10 06:27:27;;;;;;;9.55;8.52;;;24.60;49.00;;;;;;4981979;28;118444;-79
2023/09/10 06:29:54;;;;;;;10.38;8.68;;;24.70;48.40;;;;;;4982126;28;114685;-79
2023/09/10 06:32:22;;;;;;;10.98;9.88;;;24.70;48.20;;;;;;4966357;28;114385;-79
2023/09/10 06:34:49;;;;;;;12.27;10.13;;;24.80;48.20;;;;;;4984289;28;114375;-79
2023/09/10 06:37:17;;;;;;;12.85;9.13;;;24.80;48.30;;;;;;4981898;28;114873;-78
2023/09/10 06:39:44;;;;;;;9.88;8.57;;;24.80;48.40;;;;;;4981831;28;114652;-79
2023/09/10 06:42:13;;;;;;;10.55;8.48;;;24.90;48.30;;;;;;4981984;28;114657;-79
2023/09/10 06:44:53;;;;;;;10.73;8.50;;;24.90;48.00;;;;;;4968011;28;114534;-79
2023/09/10 06:47:21;;;;;;;11.52;9.30;;;24.90;47.80;;;;;;4983079;28;114991;-79
2023/09/10 06:49:48;;;;;;;9.70;8.60;;;24.90;47.90;;;;;;4983004;28;114725;-79
2023/09/10 06:52:15;;;;;;;10.93;8.77;;;25.00;47.80;;;;;;4982452;28;114324;-78
2023/09/10 06:54:42;;;;;;;10.63;8.90;;;25.00;47.90;;;;;;4982479;28;114196;-78
2023/09/10 06:57:09;;;;;;;9.65;8.48;;;25.00;47.80;;;;;;4982850;28;115243;-79
2023/09/10 06:59:36;;;;;;;9.93;8.68;;;24.90;47.70;;;;;;4981977;28;114689;-78
2023/09/10 07:02:03;;;;;;;10.48;8.77;;;24.90;47.90;;;;;;4983562;28;114281;-78
2023/09/10 07:04:30;;;;;;;13.43;8.70;;;24.90;48.00;;;;;;4983589;28;114395;-79
2023/09/10 07:06:57;;;;;;;10.48;8.00;;;24.90;48.00;;;;;;4982269;28;115001;-79
2023/09/10 07:09:25;;;;;;;10.07;9.02;;;24.80;48.10;;;;;;4982696;28;115206;-79
2023/09/10 07:11:52;;;;;;;11.05;9.27;;;24.80;48.20;;;;;;4982283;28;114241;-79
2023/09/10 07:14:20;;;;;;;10.00;8.90;;;24.80;48.20;;;;;;4998563;28;114375;-79
2023/09/10 07:16:50;;;;;;;10.75;8.25;;;24.90;48.30;;;;;;4982356;28;116325;-79
2023/09/10 07:19:17;;;;;;;10.07;8.35;;;24.90;48.30;;;;;;4982251;28;116045;-78
2023/09/10 07:21:46;;;;;;;9.02;7.85;;;25.00;48.20;;;;;;4982148;28;114347;-79
2023/09/10 07:24:13;;;;;;;8.43;7.53;;;25.10;48.00;;;;;;4982135;28;114108;-79
2023/09/10 07:26:43;;;;;;;8.88;7.97;;;25.10;48.00;;;;;;4982592;28;114882;-79
2023/09/10 07:29:15;;;;;;;9.68;7.47;;;25.10;47.90;;;;;;4981245;28;114635;-78
2023/09/10 07:31:43;;;;;;;8.95;8.00;;;25.20;47.90;;;;;;4982610;28;114245;-78
2023/09/10 07:34:10;;;;;;;10.93;8.90;;;25.30;47.80;;;;;;4981946;28;114361;-79
2023/09/10 07:36:38;;;;;;;9.57;8.07;;;25.30;47.80;;;;;;4986605;28;116769;-77
2023/09/10 07:39:06;;;;;;;8.32;7.38;;;25.40;47.50;;;;;;4984519;28;115230;-78
2023/09/10 07:41:33;;;;;;;9.00;7.70;;;25.50;47.50;;;;;;4986629;28;114413;-78
2023/09/10 07:44:06;;;;;;;9.73;8.07;;;25.50;47.20;;;;;;4985383;28;114201;-77
2023/09/10 07:46:35;;;;;;;8.77;7.93;;;25.60;47.30;;;;;;4984559;28;114941;-79
2023/09/10 07:49:02;;;;;;;11.07;8.20;;;25.70;47.20;;;;;;4984887;28;114598;-79
2023/09/10 07:51:29;;;;;;;8.43;7.53;;;25.80;47.20;;;;;;4985002;28;114260;-78
2023/09/10 07:53:57;;;;;;;8.85;7.90;;;25.80;47.10;;;;;;4986463;28;114132;-78
2023/09/10 07:56:24;;;;;;;8.95;8.02;;;25.90;47.10;;;;;;4985215;28;114955;-77
2023/09/10 07:58:51;;;;;;;8.82;7.53;;;26.00;47.10;;;;;;4984245;28;114717;-79
2023/09/10 08:01:18;;;;;;;9.48;8.10;;;26.10;46.90;;;;;;4986280;28;114351;-78
2023/09/10 08:03:45;;;;;;;9.63;7.80;;;26.30;46.40;;;;;;5001146;28;114330;-78
2023/09/10 08:06:12;;;;;;;9.82;8.45;;;26.30;45.80;;;;;;4984275;28;115629;-78
2023/09/10 08:08:42;;;;;;;8.57;7.65;;;26.30;45.70;;;;;;4985366;28;114732;-81
2023/09/10 08:11:09;;;;;;;23.10;8.77;;;26.30;45.70;;;;;;4986168;28;114426;-79
2023/09/10 08:13:36;;;;;;;9.68;7.85;;;26.40;45.80;;;;;;4986166;28;114366;-78
2023/09/10 08:16:03;;;;;;;8.55;7.40;;;26.40;45.60;;;;;;4984548;28;114814;-78
2023/09/10 08:18:30;;;;;;;9.93;7.60;;;26.40;45.50;;;;;;4985358;28;114676;-79
2023/09/10 08:20:57;;;;;;;8.40;7.30;;;26.50;45.20;;;;;;4985142;28;114199;-79
2023/09/10 08:23:27;;;;;;;9.07;8.18;;;26.60;44.40;;;;;;4985665;28;114432;-79
2023/09/10 08:25:55;;;;;;;8.80;7.90;;;26.60;44.90;;;;;;4983657;28;116388;-78
2023/09/10 08:28:22;;;;;;;9.02;7.82;;;26.70;45.30;;;;;;4984781;28;115737;-78
2023/09/10 08:30:51;;;;;;;8.75;7.57;;;26.80;45.10;;;;;;4985899;28;114232;-78
2023/09/10 08:33:18;;;;;;;10.85;7.70;;;26.80;44.10;;;;;;4983907;28;114383;-78
2023/09/10 08:35:49;;;;;;;8.85;7.40;;;26.90;43.80;;;;;;5000276;28;115018;-78
2023/09/10 08:38:26;;;;;;;8.20;7.40;;;27.00;44.30;;;;;;4967611;28;114904;-78
2023/09/10 08:40:59;;;;;;;12.57;8.25;;;27.10;43.70;;;;;;4935963;28;114216;-79
2023/09/10 08:43:55;;;;;;;10.20;7.40;;;27.20;43.60;;;;;;4985687;28;114470;-78
2023/09/10 08:46:29;;;;;;;28.25;8.43;;;27.30;43.70;;;;;;4968374;28;114889;-80
2023/09/10 08:48:57;;;;;;;8.40;6.97;;;27.30;43.90;;;;;;4983110;28;114972;-80
2023/09/10 08:51:25;;;;;;;9.63;7.10;;;27.50;42.00;;;;;;4983874;28;114236;-79
2023/09/10 08:53:55;;;;;;;9.18;7.38;;;27.50;42.00;;;;;;5000760;28;114135;-79
2023/09/10 08:56:25;;;;;;;8.77;6.68;;;27.60;41.00;;;;;;4984777;28;115039;-79
2023/09/10 08:58:52;;;;;;;8.63;6.38;;;27.60;41.00;;;;;;4983285;28;115367;-79
2023/09/10 09:01:20;;;;;;;7.90;6.03;;;27.60;40.50;;;;;;4984203;28;114176;-78
2023/09/10 09:03:47;;;;;;;10.85;6.55;;;27.60;40.70;;;;;;4984657;28;114198;-78
2023/09/10 09:06:15;;;;;;;8.88;6.38;;;27.50;40.30;;;;;;4983274;28;114986;-79
2023/09/10 09:08:48;;;;;;;7.68;5.97;;;27.60;40.20;;;;;;4966903;28;114669;-79
2023/09/10 09:11:15;;;;;;;7.25;6.05;;;27.70;39.90;;;;;;4983698;28;114213;-78
2023/09/10 09:13:44;;;;;;;9.65;7.65;;;27.70;39.70;;;;;;4967633;28;114101;-78
2023/09/10 09:16:11;;;;;;;9.10;6.18;;;27.80;39.80;;;;;;4967142;28;114950;-78
2023/09/10 09:18:39;;;;;;;7.72;6.35;;;27.80;39.60;;;;;;5000788;28;114811;-79
2023/09/10 09:21:25;;;;;;;10.60;6.25;;;27.90;39.40;;;;;;4984417;28;114486;-79
2023/09/10 09:23:59;;;;;;;7.18;6.30;;;28.10;39.90;;;;;;4967645;28;114337;-78
2023/09/10 09:26:27;;;;;;;6.60;5.82;;;28.10;38.80;;;;;;4984366;28;115093;-79
2023/09/10 09:28:57;;;;;;;7.72;6.28;;;28.10;39.20;;;;;;4984840;28;114769;-78
2023/09/10 09:31:24;;;;;;;6.95;5.65;;;28.20;38.50;;;;;;4985832;28;114334;-79
2023/09/10 09:33:52;;;;;;;7.60;5.75;;;28.20;38.30;;;;;;4986061;28;114172;-79
2023/09/10 09:36:19;;;;;;;7.38;5.68;;;28.30;38.30;;;;;;4982719;28;116453;-79
2023/09/10 09:38:47;;;;;;;7.43;5.63;;;28.20;38.10;;;;;;4966422;28;114834;-79
2023/09/10 09:41:14;;;;;;;8.65;5.80;;;28.20;38.30;;;;;;4986994;28;114228;-78
2023/09/10 09:43:42;;;;;;;7.55;6.10;;;28.20;38.20;;;;;;4983700;28;114336;-79
2023/09/10 09:46:09;;;;;;;6.53;5.45;;;28.30;38.40;;;;;;4984080;28;115019;-79
2023/09/10 09:48:37;;;;;;;8.80;6.28;;;28.30;38.20;;;;;;4983905;28;115227;-78
2023/09/10 09:51:04;;;;;;;8.85;5.78;;;28.30;38.40;;;;;;4967179;28;114469;-79
2023/09/10 09:53:32;;;;;;;8.15;5.80;;;28.30;38.50;;;;;;4984976;28;114254;-79
2023/09/10 09:56:04;;;;;;;6.90;5.82;;;28.30;38.80;;;;;;4983842;28;115525;-79
2023/09/10 09:58:31;;;;;;;8.30;5.57;;;28.30;38.80;;;;;;4983914;28;114774;-78
2023/09/10 10:01:13;;;;;;;8.52;6.03;;;28.30;38.80;;;;;;4983453;28;114239;-79
2023/09/10 10:03:40;;;;;;;10.23;6.05;;;28.30;38.80;;;;;;4984529;28;114000;-78
2023/09/10 10:06:08;;;;;;;9.40;5.60;;;28.30;38.80;;;;;;4982532;28;115012;-78
2023/09/10 10:08:37;;;;;;;9.70;5.90;;;28.30;39.00;;;;;;4983729;28;114595;-79
2023/09/10 10:11:05;;;;;;;7.40;5.30;;;28.30;38.50;;;;;;4983213;28;114403;-79
2023/09/10 10:13:32;;;;;;;7.72;6.07;;;28.40;38.40;;;;;;4984117;28;114276;-78
2023/09/10 10:15:59;;;;;;;8.23;5.95;;;28.40;38.60;;;;;;4982987;28;115908;-79
2023/09/10 10:18:26;;;;;;;9.45;6.28;;;28.30;38.60;;;;;;4982577;28;115047;-78
2023/09/10 10:20:57;;;;;;;9.10;6.55;;;28.40;38.20;;;;;;4982943;28;114423;-79
2023/09/10 10:23:26;;;;;;;8.27;5.85;;;28.40;38.80;;;;;;4983170;28;114107;-78
2023/09/10 10:25:58;;;;;;;6.65;5.78;;;28.40;38.70;;;;;;5014305;28;114828;-79
2023/09/10 10:28:25;;;;;;;8.35;5.63;;;28.50;38.80;;;;;;4982418;28;114831;-79
2023/09/10 10:30:59;;;;;;;8.40;5.75;;;28.50;38.70;;;;;;4982884;28;114197;-79
2023/09/10 10:33:26;;;;;;;9.80;6.18;;;28.60;39.30;;;;;;4982669;28;114416;-79
2023/09/10 10:36:19;;;;;;;9.23;6.65;;;28.60;39.30;;;;;;4965563;28;117910;-78
2023/09/10 10:38:47;;;;;;;7.82;6.07;;;28.70;39.20;;;;;;4982106;28;115242;-77
2023/09/10 10:41:17;;;;;;;7.10;6.07;;;28.60;39.10;;;;;;5015505;28;114270;-78
2023/09/10 10:43:51;;;;;;;8.05;5.90;;;28.70;38.90;;;;;;4966752;28;114140;-78
2023/09/10 10:46:18;;;;;;;7.03;5.60;;;28.70;38.60;;;;;;4981620;28;115156;-78
2023/09/10 10:48:45;;;;;;;7.68;6.20;;;28.70;38.30;;;;;;4981809;28;114710;-78
2023/09/10 10:51:14;;;;;;;8.52;5.80;;;28.70;38.30;;;;;;4965750;28;114315;-80
2023/09/10 10:53:42;;;;;;;7.65;5.68;;;28.70;38.40;;;;;;4982535;28;114359;-78
2023/09/10 10:56:09;;;;;;;6.68;5.90;;;28.70;37.90;;;;;;4981909;28;114939;-78
2023/09/10 10:58:40;;;;;;;7.60;5.60;;;28.70;37.90;;;;;;4981723;28;114853;-78
2023/09/10 11:01:07;;;;;;;7.55;5.18;;;28.60;37.80;;;;;;4982326;28;114276;-79
2023/09/10 11:03:34;;;;;;;7.82;6.20;;;28.60;38.00;;;;;;4982100;28;114303;-79
2023/09/10 11:06:05;;;;;;;8.18;5.45;;;28.60;37.80;;;;;;4981580;28;115049;-79
2023/09/10 11:08:37;;;;;;;8.82;5.70;;;28.60;37.40;;;;;;4981948;28;114612;-79
2023/09/10 11:11:06;;;;;;;8.52;6.50;;;28.40;37.30;;;;;;4983379;28;114179;-79
2023/09/10 11:13:33;;;;;;;7.30;5.93;;;28.30;37.80;;;;;;4982624;28;114333;-79
2023/09/10 11:16:06;;;;;;;7.00;5.78;;;28.30;38.00;;;;;;4980656;28;116179;-78
2023/09/10 11:18:36;;;;;;;10.18;5.80;;;28.40;38.10;;;;;;4982669;28;114657;-79
2023/09/10 11:21:44;;;;;;;7.47;5.55;;;28.50;38.20;;;;;;4982971;28;116095;-78
2023/09/10 11:24:14;;;;;;;7.90;4.95;;;28.60;38.20;;;;;;4983197;28;114698;-79
2023/09/10 11:26:41;;;;;;;7.53;5.38;;;28.60;37.70;;;;;;4982513;28;114949;-79
2023/09/10 11:29:08;;;;;;;8.80;5.38;;;28.50;38.00;;;;;;5014590;28;114668;-78
2023/09/10 11:31:38;;;;;;;6.72;5.40;;;28.50;37.90;;;;;;4981558;28;114290;-78
2023/09/10 11:34:18;;;;;;;8.27;5.55;;;28.50;37.70;;;;;;4983722;28;114228;-79
2023/09/10 11:36:55;;;;;;;7.30;5.63;;;28.40;37.90;;;;;;4964897;28;117760;-79
2023/09/10 11:39:22;;;;;;;6.60;5.60;;;28.40;37.90;;;;;;4981421;28;114790;-78
2023/09/10 11:41:51;;;;;;;8.05;6.30;;;28.30;37.80;;;;;;4981591;28;114343;-77
2023/09/10 11:44:18;;;;;;;6.95;5.68;;;28.40;37.80;;;;;;4983188;28;114140;-79
2023/09/10 11:46:45;;;;;;;7.55;5.80;;;28.40;38.10;;;;;;4982469;28;115022;-79
2023/09/10 11:49:13;;;;;;;7.93;5.80;;;28.50;38.10;;;;;;4981248;28;114703;-79
2023/09/10 11:51:45;;;;;;;7.13;5.53;;;28.50;38.00;;;;;;4981940;28;114507;-78
2023/09/10 11:54:16;;;;;;;7.95;5.53;;;28.50;38.00;;;;;;4981777;28;114367;-79
2023/09/10 11:56:47;;;;;;;9.10;5.78;;;28.50;38.10;;;;;;4981247;28;114965;-79
2023/09/10 11:59:15;;;;;;;7.22;5.90;;;28.50;37.90;;;;;;4982578;28;114680;-79
2023/09/10 12:01:43;;;;;;;8.13;5.40;;;28.60;38.00;;;;;;4983137;28;114400;-79
2023/09/10 12:04:11;;;;;;;11.00;5.50;;;28.50;37.90;;;;;;4983073;28;114115;-78
2023/09/10 12:06:39;;;;;;;8.80;5.60;;;28.50;37.40;;;;;;4981857;28;114984;-78
2023/09/10 12:09:06;;;;;;;7.63;5.63;;;28.50;37.80;;;;;;4982266;28;114535;-79
2023/09/10 12:11:33;;;;;;;6.07;5.47;;;28.40;38.00;;;;;;4983223;28;114193;-78
2023/09/10 12:14:00;;;;;;;9.70;5.80;;;28.50;37.60;;;;;;4981682;28;114173;-79
2023/09/10 12:16:27;;;;;;;7.68;5.45;;;28.50;37.50;;;;;;4980674;28;115037;-79
2023/09/10 12:18:54;;;;;;;7.20;5.43;;;28.50;37.60;;;;;;4981131;28;115188;-78
2023/09/10 12:21:23;;;;;;;8.57;5.47;;;28.50;37.80;;;;;;4983113;28;114308;-78
2023/09/10 12:23:50;;;;;;;7.10;5.57;;;28.50;37.80;;;;;;4982601;28;114231;-78
2023/09/10 12:26:19;;;;;;;8.82;5.80;;;28.60;37.90;;;;;;4984083;28;114832;-79
2023/09/10 12:28:50;;;;;;;7.28;6.15;;;28.60;38.10;;;;;;4985524;28;114644;-78
2023/09/10 12:31:17;;;;;;;11.55;6.05;;;28.60;37.90;;;;;;4984514;28;114855;-79
2023/09/10 12:33:45;;;;;;;7.82;5.85;;;28.70;38.00;;;;;;4986077;28;114633;-79